sensor_id;sensor_type;location;lat;lon;timestamp;P1;durP1;ratioP1;P2;durP2;ratioP2
830;SDS011;397;50.564;7.272;2023-07-29T00:00:49;4.40;;;4.00;;
830;SDS011;397;50.564;7.272;2023-07-29T00:03:17;4.60;;;3.83;;
830;SDS011;397;50.564;7.272;2023-07-29T00:05:44;5.13;;;3.70;;
830;SDS011;397;50.564;7.272;2023-07-29T00:08:12;6.07;;;3.17;;
830;SDS011;397;50.564;7.272;2023-07-29T00:10:40;5.50;;;3.63;;
830;SDS011;397;50.564;7.272;2023-07-29T00:13:07;3.33;;;2.97;;
830;SDS011;397;50.564;7.272;2023-07-29T00:15:35;6.33;;;3.73;;
830;SDS011;397;50.564;7.272;2023-07-29T00:18:03;3.40;;;3.10;;
830;SDS011;397;50.564;7.272;2023-07-29T00:20:30;6.20;;;4.13;;
830;SDS011;397;50.564;7.272;2023-07-29T00:22:57;4.23;;;2.80;;
830;SDS011;397;50.564;7.272;2023-07-29T00:25:25;4.17;;;3.37;;
830;SDS011;397;50.564;7.272;2023-07-29T00:27:54;4.00;;;2.77;;
830;SDS011;397;50.564;7.272;2023-07-29T00:30:22;3.00;;;2.53;;
830;SDS011;397;50.564;7.272;2023-07-29T00:32:50;3.40;;;2.10;;
830;SDS011;397;50.564;7.272;2023-07-29T00:35:17;5.70;;;2.40;;
830;SDS011;397;50.564;7.272;2023-07-29T00:37:44;4.10;;;2.53;;
830;SDS011;397;50.564;7.272;2023-07-29T00:40:19;7.60;;;3.00;;
830;SDS011;397;50.564;7.272;2023-07-29T00:42:43;5.80;;;2.83;;
830;SDS011;397;50.564;7.272;2023-07-29T00:45:10;5.63;;;3.37;;
830;SDS011;397;50.564;7.272;2023-07-29T00:47:38;3.90;;;3.30;;
830;SDS011;397;50.564;7.272;2023-07-29T00:50:06;5.53;;;3.67;;
830;SDS011;397;50.564;7.272;2023-07-29T00:52:35;3.90;;;3.50;;
830;SDS011;397;50.564;7.272;2023-07-29T00:55:03;4.80;;;4.00;;
830;SDS011;397;50.564;7.272;2023-07-29T00:57:32;4.60;;;4.10;;
830;SDS011;397;50.564;7.272;2023-07-29T01:00:02;4.83;;;2.90;;
830;SDS011;397;50.564;7.272;2023-07-29T01:02:30;5.00;;;3.27;;
830;SDS011;397;50.564;7.272;2023-07-29T01:04:58;3.50;;;2.60;;
830;SDS011;397;50.564;7.272;2023-07-29T01:10:24;5.90;;;5.23;;
830;SDS011;397;50.564;7.272;2023-07-29T01:12:54;6.80;;;4.97;;
830;SDS011;397;50.564;7.272;2023-07-29T01:15:40;7.03;;;6.43;;
830;SDS011;397;50.564;7.272;2023-07-29T01:18:14;6.73;;;6.13;;
830;SDS011;397;50.564;7.272;2023-07-29T01:20:37;6.33;;;5.00;;
830;SDS011;397;50.564;7.272;2023-07-29T01:23:07;6.10;;;5.50;;
830;SDS011;397;50.564;7.272;2023-07-29T01:25:35;9.20;;;6.43;;
830;SDS011;397;50.564;7.272;2023-07-29T01:28:02;7.93;;;6.60;;
830;SDS011;397;50.564;7.272;2023-07-29T01:30:31;8.60;;;7.80;;
830;SDS011;397;50.564;7.272;2023-07-29T01:33:48;8.93;;;7.10;;
830;SDS011;397;50.564;7.272;2023-07-29T01:38:14;12.63;;;7.53;;
830;SDS011;397;50.564;7.272;2023-07-29T01:40:48;7.40;;;6.70;;
830;SDS011;397;50.564;7.272;2023-07-29T01:43:17;9.70;;;6.00;;
830;SDS011;397;50.564;7.272;2023-07-29T01:45:49;8.03;;;7.17;;
830;SDS011;397;50.564;7.272;2023-07-29T01:48:17;8.93;;;8.13;;
830;SDS011;397;50.564;7.272;2023-07-29T01:50:44;9.70;;;7.27;;
830;SDS011;397;50.564;7.272;2023-07-29T01:53:12;8.80;;;8.00;;
830;SDS011;397;50.564;7.272;2023-07-29T01:55:40;8.00;;;7.30;;
830;SDS011;397;50.564;7.272;2023-07-29T01:58:08;9.07;;;8.30;;
830;SDS011;397;50.564;7.272;2023-07-29T02:00:35;10.17;;;7.80;;
830;SDS011;397;50.564;7.272;2023-07-29T02:03:03;6.80;;;6.03;;
830;SDS011;397;50.564;7.272;2023-07-29T02:05:30;7.50;;;6.80;;
830;SDS011;397;50.564;7.272;2023-07-29T02:07:58;7.63;;;6.80;;
830;SDS011;397;50.564;7.272;2023-07-29T02:10:25;5.60;;;4.90;;
830;SDS011;397;50.564;7.272;2023-07-29T02:12:53;5.57;;;5.07;;
830;SDS011;397;50.564;7.272;2023-07-29T02:15:20;5.30;;;4.80;;
830;SDS011;397;50.564;7.272;2023-07-29T02:17:49;9.40;;;4.17;;
830;SDS011;397;50.564;7.272;2023-07-29T02:20:17;4.20;;;2.40;;
830;SDS011;397;50.564;7.272;2023-07-29T02:22:45;7.73;;;2.83;;
830;SDS011;397;50.564;7.272;2023-07-29T02:25:14;3.47;;;2.53;;
830;SDS011;397;50.564;7.272;2023-07-29T02:27:41;4.03;;;2.47;;
830;SDS011;397;50.564;7.272;2023-07-29T02:30:09;4.87;;;2.60;;
830;SDS011;397;50.564;7.272;2023-07-29T02:32:38;8.00;;;2.63;;
830;SDS011;397;50.564;7.272;2023-07-29T02:35:05;3.57;;;2.63;;
830;SDS011;397;50.564;7.272;2023-07-29T02:37:33;2.70;;;2.20;;
830;SDS011;397;50.564;7.272;2023-07-29T02:40:01;3.83;;;2.10;;
830;SDS011;397;50.564;7.272;2023-07-29T02:42:29;2.90;;;1.90;;
830;SDS011;397;50.564;7.272;2023-07-29T02:44:57;4.10;;;2.10;;
830;SDS011;397;50.564;7.272;2023-07-29T02:47:24;2.70;;;2.10;;
830;SDS011;397;50.564;7.272;2023-07-29T02:49:52;4.27;;;2.90;;
830;SDS011;397;50.564;7.272;2023-07-29T02:52:19;4.33;;;2.80;;
830;SDS011;397;50.564;7.272;2023-07-29T02:54:47;6.03;;;4.50;;
830;SDS011;397;50.564;7.272;2023-07-29T02:57:14;6.77;;;4.20;;
830;SDS011;397;50.564;7.272;2023-07-29T02:59:43;6.40;;;5.80;;
830;SDS011;397;50.564;7.272;2023-07-29T03:02:11;7.50;;;6.90;;
830;SDS011;397;50.564;7.272;2023-07-29T03:04:38;7.93;;;6.87;;
830;SDS011;397;50.564;7.272;2023-07-29T03:07:06;7.57;;;6.87;;
830;SDS011;397;50.564;7.272;2023-07-29T03:09:33;8.63;;;7.83;;
830;SDS011;397;50.564;7.272;2023-07-29T03:12:01;6.87;;;6.27;;
830;SDS011;397;50.564;7.272;2023-07-29T03:14:28;8.60;;;7.80;;
830;SDS011;397;50.564;7.272;2023-07-29T03:16:57;9.20;;;8.40;;
830;SDS011;397;50.564;7.272;2023-07-29T03:19:25;8.40;;;7.60;;
830;SDS011;397;50.564;7.272;2023-07-29T03:21:52;8.70;;;7.80;;
830;SDS011;397;50.564;7.272;2023-07-29T03:24:20;7.20;;;6.50;;
830;SDS011;397;50.564;7.272;2023-07-29T03:26:47;7.70;;;7.10;;
830;SDS011;397;50.564;7.272;2023-07-29T03:29:15;10.87;;;8.10;;
830;SDS011;397;50.564;7.272;2023-07-29T03:31:42;7.43;;;6.73;;
830;SDS011;397;50.564;7.272;2023-07-29T03:34:10;6.73;;;5.77;;
830;SDS011;397;50.564;7.272;2023-07-29T03:36:38;10.53;;;6.87;;
830;SDS011;397;50.564;7.272;2023-07-29T03:39:06;10.23;;;6.70;;
830;SDS011;397;50.564;7.272;2023-07-29T03:41:33;11.77;;;7.97;;
830;SDS011;397;50.564;7.272;2023-07-29T03:44:01;7.30;;;6.60;;
830;SDS011;397;50.564;7.272;2023-07-29T03:46:29;8.13;;;6.40;;
830;SDS011;397;50.564;7.272;2023-07-29T03:48:57;5.73;;;5.23;;
830;SDS011;397;50.564;7.272;2023-07-29T03:51:25;6.27;;;5.67;;
830;SDS011;397;50.564;7.272;2023-07-29T03:53:52;6.70;;;4.70;;
830;SDS011;397;50.564;7.272;2023-07-29T03:56:20;6.13;;;5.50;;
830;SDS011;397;50.564;7.272;2023-07-29T03:58:47;7.00;;;4.60;;
830;SDS011;397;50.564;7.272;2023-07-29T04:01:15;8.37;;;4.40;;
830;SDS011;397;50.564;7.272;2023-07-29T04:03:42;5.63;;;5.03;;
830;SDS011;397;50.564;7.272;2023-07-29T04:06:12;7.03;;;4.77;;
830;SDS011;397;50.564;7.272;2023-07-29T04:08:39;6.03;;;4.27;;
830;SDS011;397;50.564;7.272;2023-07-29T04:11:07;6.47;;;4.20;;
830;SDS011;397;50.564;7.272;2023-07-29T04:13:35;4.90;;;4.40;;
830;SDS011;397;50.564;7.272;2023-07-29T04:16:04;7.13;;;5.17;;
830;SDS011;397;50.564;7.272;2023-07-29T04:18:31;4.10;;;3.70;;
830;SDS011;397;50.564;7.272;2023-07-29T04:20:59;3.20;;;2.80;;
830;SDS011;397;50.564;7.272;2023-07-29T04:23:26;3.30;;;3.00;;
830;SDS011;397;50.564;7.272;2023-07-29T04:25:54;3.30;;;3.00;;
830;SDS011;397;50.564;7.272;2023-07-29T04:28:21;3.83;;;3.07;;
830;SDS011;397;50.564;7.272;2023-07-29T04:30:49;3.97;;;2.83;;
830;SDS011;397;50.564;7.272;2023-07-29T04:33:16;5.53;;;3.90;;
830;SDS011;397;50.564;7.272;2023-07-29T04:35:44;4.70;;;3.20;;
830;SDS011;397;50.564;7.272;2023-07-29T04:38:12;3.60;;;3.23;;
830;SDS011;397;50.564;7.272;2023-07-29T04:40:39;5.20;;;3.60;;
830;SDS011;397;50.564;7.272;2023-07-29T04:43:07;3.33;;;2.97;;
830;SDS011;397;50.564;7.272;2023-07-29T04:45:34;4.70;;;3.07;;
830;SDS011;397;50.564;7.272;2023-07-29T04:48:02;4.23;;;3.40;;
830;SDS011;397;50.564;7.272;2023-07-29T04:50:30;3.97;;;3.57;;
830;SDS011;397;50.564;7.272;2023-07-29T04:52:57;4.60;;;3.40;;
830;SDS011;397;50.564;7.272;2023-07-29T04:55:25;7.03;;;4.70;;
830;SDS011;397;50.564;7.272;2023-07-29T04:57:52;3.80;;;3.40;;
830;SDS011;397;50.564;7.272;2023-07-29T05:00:20;4.00;;;3.60;;
830;SDS011;397;50.564;7.272;2023-07-29T05:02:48;5.03;;;3.30;;
830;SDS011;397;50.564;7.272;2023-07-29T05:05:16;6.40;;;3.77;;
830;SDS011;397;50.564;7.272;2023-07-29T05:07:43;3.80;;;3.40;;
830;SDS011;397;50.564;7.272;2023-07-29T05:10:11;4.37;;;3.97;;
830;SDS011;397;50.564;7.272;2023-07-29T05:12:38;4.93;;;3.80;;
830;SDS011;397;50.564;7.272;2023-07-29T05:15:06;4.33;;;3.50;;
830;SDS011;397;50.564;7.272;2023-07-29T05:17:34;5.30;;;3.70;;
830;SDS011;397;50.564;7.272;2023-07-29T05:20:02;6.60;;;5.43;;
830;SDS011;397;50.564;7.272;2023-07-29T05:22:30;3.80;;;3.17;;
830;SDS011;397;50.564;7.272;2023-07-29T05:24:57;3.87;;;3.27;;
830;SDS011;397;50.564;7.272;2023-07-29T05:27:25;6.57;;;3.70;;
830;SDS011;397;50.564;7.272;2023-07-29T05:29:52;4.20;;;3.07;;
830;SDS011;397;50.564;7.272;2023-07-29T05:32:20;7.37;;;3.03;;
830;SDS011;397;50.564;7.272;2023-07-29T05:34:47;3.13;;;2.80;;
830;SDS011;397;50.564;7.272;2023-07-29T05:37:15;3.50;;;2.53;;
830;SDS011;397;50.564;7.272;2023-07-29T05:39:42;3.43;;;3.03;;
830;SDS011;397;50.564;7.272;2023-07-29T05:42:10;4.60;;;3.13;;
830;SDS011;397;50.564;7.272;2023-07-29T05:44:37;4.30;;;2.63;;
830;SDS011;397;50.564;7.272;2023-07-29T05:47:05;2.93;;;2.57;;
830;SDS011;397;50.564;7.272;2023-07-29T05:49:32;3.27;;;2.70;;
830;SDS011;397;50.564;7.272;2023-07-29T05:52:00;5.50;;;2.50;;
830;SDS011;397;50.564;7.272;2023-07-29T05:54:27;3.10;;;2.23;;
830;SDS011;397;50.564;7.272;2023-07-29T05:56:55;2.40;;;2.03;;
830;SDS011;397;50.564;7.272;2023-07-29T05:59:22;3.63;;;2.50;;
830;SDS011;397;50.564;7.272;2023-07-29T06:01:50;3.10;;;2.70;;
830;SDS011;397;50.564;7.272;2023-07-29T06:04:17;5.57;;;2.50;;
830;SDS011;397;50.564;7.272;2023-07-29T06:06:45;3.70;;;2.40;;
830;SDS011;397;50.564;7.272;2023-07-29T06:09:13;3.53;;;2.53;;
830;SDS011;397;50.564;7.272;2023-07-29T06:11:40;4.63;;;2.80;;
830;SDS011;397;50.564;7.272;2023-07-29T06:14:08;4.13;;;2.70;;
830;SDS011;397;50.564;7.272;2023-07-29T06:16:36;4.53;;;3.20;;
830;SDS011;397;50.564;7.272;2023-07-29T06:19:03;3.23;;;2.57;;
830;SDS011;397;50.564;7.272;2023-07-29T06:21:31;5.10;;;3.00;;
830;SDS011;397;50.564;7.272;2023-07-29T06:23:58;4.80;;;3.23;;
830;SDS011;397;50.564;7.272;2023-07-29T06:26:26;4.03;;;2.87;;
830;SDS011;397;50.564;7.272;2023-07-29T06:28:54;5.80;;;3.53;;
830;SDS011;397;50.564;7.272;2023-07-29T06:31:22;4.30;;;3.07;;
830;SDS011;397;50.564;7.272;2023-07-29T06:33:49;3.77;;;3.23;;
830;SDS011;397;50.564;7.272;2023-07-29T06:36:17;6.03;;;3.87;;
830;SDS011;397;50.564;7.272;2023-07-29T06:38:44;3.80;;;2.83;;
830;SDS011;397;50.564;7.272;2023-07-29T06:41:12;4.53;;;3.20;;
830;SDS011;397;50.564;7.272;2023-07-29T06:43:39;4.70;;;3.40;;
830;SDS011;397;50.564;7.272;2023-07-29T06:46:07;4.33;;;3.40;;
830;SDS011;397;50.564;7.272;2023-07-29T06:48:34;2.67;;;2.27;;
830;SDS011;397;50.564;7.272;2023-07-29T06:51:03;3.60;;;1.80;;
830;SDS011;397;50.564;7.272;2023-07-29T06:53:30;2.53;;;2.33;;
830;SDS011;397;50.564;7.272;2023-07-29T06:55:58;3.27;;;2.50;;
830;SDS011;397;50.564;7.272;2023-07-29T06:58:25;6.23;;;2.60;;
830;SDS011;397;50.564;7.272;2023-07-29T07:00:53;3.50;;;2.77;;
830;SDS011;397;50.564;7.272;2023-07-29T07:03:21;2.90;;;2.37;;
830;SDS011;397;50.564;7.272;2023-07-29T07:05:48;2.93;;;2.63;;
830;SDS011;397;50.564;7.272;2023-07-29T07:08:16;5.03;;;2.40;;
830;SDS011;397;50.564;7.272;2023-07-29T07:10:44;3.90;;;2.30;;
830;SDS011;397;50.564;7.272;2023-07-29T07:13:13;2.57;;;1.73;;
830;SDS011;397;50.564;7.272;2023-07-29T07:15:40;2.80;;;1.90;;
830;SDS011;397;50.564;7.272;2023-07-29T07:18:08;5.20;;;2.33;;
830;SDS011;397;50.564;7.272;2023-07-29T07:20:35;3.17;;;1.80;;
830;SDS011;397;50.564;7.272;2023-07-29T07:23:03;3.20;;;1.80;;
830;SDS011;397;50.564;7.272;2023-07-29T07:25:32;2.70;;;1.70;;
830;SDS011;397;50.564;7.272;2023-07-29T07:28:00;3.00;;;1.67;;
830;SDS011;397;50.564;7.272;2023-07-29T07:30:27;4.40;;;1.90;;
830;SDS011;397;50.564;7.272;2023-07-29T07:32:55;4.57;;;1.93;;
830;SDS011;397;50.564;7.272;2023-07-29T07:35:22;2.63;;;1.70;;
830;SDS011;397;50.564;7.272;2023-07-29T07:37:50;2.50;;;1.40;;
830;SDS011;397;50.564;7.272;2023-07-29T07:40:17;5.13;;;2.00;;
830;SDS011;397;50.564;7.272;2023-07-29T07:42:45;2.57;;;1.67;;
830;SDS011;397;50.564;7.272;2023-07-29T07:45:12;3.43;;;1.57;;
830;SDS011;397;50.564;7.272;2023-07-29T07:47:43;3.30;;;1.60;;
830;SDS011;397;50.564;7.272;2023-07-29T07:50:11;2.87;;;1.60;;
830;SDS011;397;50.564;7.272;2023-07-29T07:52:40;2.73;;;1.67;;
830;SDS011;397;50.564;7.272;2023-07-29T07:55:07;2.80;;;1.50;;
830;SDS011;397;50.564;7.272;2023-07-29T07:57:35;3.70;;;1.83;;
830;SDS011;397;50.564;7.272;2023-07-29T08:00:03;2.63;;;1.70;;
830;SDS011;397;50.564;7.272;2023-07-29T08:02:31;3.40;;;1.60;;
830;SDS011;397;50.564;7.272;2023-07-29T08:04:59;4.60;;;1.53;;
830;SDS011;397;50.564;7.272;2023-07-29T08:07:27;3.80;;;1.67;;
830;SDS011;397;50.564;7.272;2023-07-29T08:09:54;5.70;;;1.90;;
830;SDS011;397;50.564;7.272;2023-07-29T08:12:22;7.03;;;2.27;;
830;SDS011;397;50.564;7.272;2023-07-29T08:14:49;3.10;;;2.23;;
830;SDS011;397;50.564;7.272;2023-07-29T08:17:17;3.70;;;2.27;;
830;SDS011;397;50.564;7.272;2023-07-29T08:19:44;3.83;;;1.97;;
830;SDS011;397;50.564;7.272;2023-07-29T08:22:12;2.87;;;1.90;;
830;SDS011;397;50.564;7.272;2023-07-29T08:24:39;3.43;;;1.80;;
830;SDS011;397;50.564;7.272;2023-07-29T08:27:07;2.70;;;1.70;;
830;SDS011;397;50.564;7.272;2023-07-29T08:29:35;3.87;;;2.43;;
830;SDS011;397;50.564;7.272;2023-07-29T08:32:02;3.70;;;2.20;;
830;SDS011;397;50.564;7.272;2023-07-29T08:34:30;3.20;;;1.80;;
830;SDS011;397;50.564;7.272;2023-07-29T08:36:57;3.43;;;1.40;;
830;SDS011;397;50.564;7.272;2023-07-29T08:39:25;3.63;;;2.10;;
830;SDS011;397;50.564;7.272;2023-07-29T08:44:34;3.00;;;1.97;;
830;SDS011;397;50.564;7.272;2023-07-29T08:47:04;4.30;;;2.47;;
830;SDS011;397;50.564;7.272;2023-07-29T08:49:32;3.67;;;2.20;;
830;SDS011;397;50.564;7.272;2023-07-29T08:52:00;3.30;;;2.07;;
830;SDS011;397;50.564;7.272;2023-07-29T08:54:28;5.73;;;2.00;;
830;SDS011;397;50.564;7.272;2023-07-29T08:56:56;3.10;;;1.97;;
830;SDS011;397;50.564;7.272;2023-07-29T08:59:25;8.07;;;2.63;;
830;SDS011;397;50.564;7.272;2023-07-29T09:01:55;2.60;;;1.80;;
830;SDS011;397;50.564;7.272;2023-07-29T09:04:24;3.23;;;2.13;;
830;SDS011;397;50.564;7.272;2023-07-29T09:06:51;4.87;;;2.20;;
830;SDS011;397;50.564;7.272;2023-07-29T09:09:22;4.80;;;2.37;;
830;SDS011;397;50.564;7.272;2023-07-29T09:11:50;3.47;;;1.83;;
830;SDS011;397;50.564;7.272;2023-07-29T09:14:17;5.07;;;2.03;;
830;SDS011;397;50.564;7.272;2023-07-29T09:16:45;3.17;;;2.20;;
830;SDS011;397;50.564;7.272;2023-07-29T09:19:13;3.47;;;2.27;;
830;SDS011;397;50.564;7.272;2023-07-29T09:21:40;3.00;;;1.83;;
830;SDS011;397;50.564;7.272;2023-07-29T09:24:08;3.70;;;2.20;;
830;SDS011;397;50.564;7.272;2023-07-29T09:26:36;8.43;;;3.27;;
830;SDS011;397;50.564;7.272;2023-07-29T09:29:04;2.70;;;2.20;;
830;SDS011;397;50.564;7.272;2023-07-29T09:31:32;3.20;;;1.97;;
830;SDS011;397;50.564;7.272;2023-07-29T09:34:00;3.40;;;2.17;;
830;SDS011;397;50.564;7.272;2023-07-29T09:36:32;4.73;;;2.63;;
830;SDS011;397;50.564;7.272;2023-07-29T09:39:01;4.07;;;2.53;;
830;SDS011;397;50.564;7.272;2023-07-29T09:41:29;5.30;;;2.50;;
830;SDS011;397;50.564;7.272;2023-07-29T09:44:00;3.30;;;2.40;;
830;SDS011;397;50.564;7.272;2023-07-29T09:46:36;3.97;;;2.87;;
830;SDS011;397;50.564;7.272;2023-07-29T09:49:02;4.90;;;2.93;;
830;SDS011;397;50.564;7.272;2023-07-29T09:51:31;3.33;;;2.30;;
830;SDS011;397;50.564;7.272;2023-07-29T09:54:02;3.30;;;2.30;;
830;SDS011;397;50.564;7.272;2023-07-29T09:56:29;4.13;;;2.57;;
830;SDS011;397;50.564;7.272;2023-07-29T09:58:57;3.10;;;2.30;;
830;SDS011;397;50.564;7.272;2023-07-29T10:01:25;3.43;;;2.20;;
830;SDS011;397;50.564;7.272;2023-07-29T10:03:53;3.93;;;2.23;;
830;SDS011;397;50.564;7.272;2023-07-29T10:06:22;3.93;;;2.50;;
830;SDS011;397;50.564;7.272;2023-07-29T10:08:51;3.80;;;2.87;;
830;SDS011;397;50.564;7.272;2023-07-29T10:11:19;3.23;;;2.67;;
830;SDS011;397;50.564;7.272;2023-07-29T10:13:48;3.30;;;2.23;;
830;SDS011;397;50.564;7.272;2023-07-29T10:16:17;3.70;;;2.60;;
830;SDS011;397;50.564;7.272;2023-07-29T10:18:46;3.87;;;2.23;;
830;SDS011;397;50.564;7.272;2023-07-29T10:21:14;9.00;;;3.50;;
830;SDS011;397;50.564;7.272;2023-07-29T10:23:43;4.07;;;2.60;;
830;SDS011;397;50.564;7.272;2023-07-29T10:26:15;3.60;;;2.67;;
830;SDS011;397;50.564;7.272;2023-07-29T10:28:47;3.80;;;2.50;;
830;SDS011;397;50.564;7.272;2023-07-29T10:31:16;3.40;;;1.97;;
830;SDS011;397;50.564;7.272;2023-07-29T10:33:45;4.30;;;2.30;;
830;SDS011;397;50.564;7.272;2023-07-29T10:36:13;4.20;;;2.23;;
830;SDS011;397;50.564;7.272;2023-07-29T10:38:40;3.93;;;2.40;;
830;SDS011;397;50.564;7.272;2023-07-29T10:41:08;4.17;;;2.53;;
830;SDS011;397;50.564;7.272;2023-07-29T10:43:36;3.87;;;2.13;;
830;SDS011;397;50.564;7.272;2023-07-29T10:46:23;3.20;;;2.37;;
830;SDS011;397;50.564;7.272;2023-07-29T10:51:36;4.00;;;1.93;;
830;SDS011;397;50.564;7.272;2023-07-29T10:54:14;4.00;;;2.07;;
830;SDS011;397;50.564;7.272;2023-07-29T10:56:42;3.10;;;2.30;;
830;SDS011;397;50.564;7.272;2023-07-29T11:01:43;4.80;;;1.80;;
830;SDS011;397;50.564;7.272;2023-07-29T11:12:34;2.90;;;1.87;;
830;SDS011;397;50.564;7.272;2023-07-29T11:15:22;4.37;;;2.97;;
830;SDS011;397;50.564;7.272;2023-07-29T11:17:52;2.90;;;1.97;;
830;SDS011;397;50.564;7.272;2023-07-29T11:20:28;3.33;;;2.20;;
830;SDS011;397;50.564;7.272;2023-07-29T11:22:59;3.57;;;2.13;;
830;SDS011;397;50.564;7.272;2023-07-29T11:25:28;3.33;;;1.70;;
830;SDS011;397;50.564;7.272;2023-07-29T11:27:57;3.00;;;2.10;;
830;SDS011;397;50.564;7.272;2023-07-29T11:30:25;3.37;;;2.20;;
830;SDS011;397;50.564;7.272;2023-07-29T11:32:55;2.73;;;1.67;;
830;SDS011;397;50.564;7.272;2023-07-29T11:35:24;3.07;;;2.10;;
830;SDS011;397;50.564;7.272;2023-07-29T11:37:53;3.03;;;2.10;;
830;SDS011;397;50.564;7.272;2023-07-29T11:40:24;4.73;;;2.40;;
830;SDS011;397;50.564;7.272;2023-07-29T11:42:52;3.93;;;2.00;;
830;SDS011;397;50.564;7.272;2023-07-29T11:45:21;3.67;;;2.40;;
830;SDS011;397;50.564;7.272;2023-07-29T11:47:49;3.90;;;2.50;;
830;SDS011;397;50.564;7.272;2023-07-29T11:50:17;3.80;;;2.63;;
830;SDS011;397;50.564;7.272;2023-07-29T11:52:45;3.30;;;2.00;;
830;SDS011;397;50.564;7.272;2023-07-29T11:55:14;3.17;;;1.90;;
830;SDS011;397;50.564;7.272;2023-07-29T11:57:42;4.10;;;2.40;;
830;SDS011;397;50.564;7.272;2023-07-29T12:00:11;3.20;;;2.10;;
830;SDS011;397;50.564;7.272;2023-07-29T12:02:40;3.50;;;2.30;;
830;SDS011;397;50.564;7.272;2023-07-29T12:05:10;3.20;;;1.80;;
830;SDS011;397;50.564;7.272;2023-07-29T12:07:39;3.30;;;1.90;;
830;SDS011;397;50.564;7.272;2023-07-29T12:10:09;2.73;;;1.70;;
830;SDS011;397;50.564;7.272;2023-07-29T12:12:48;3.57;;;1.93;;
830;SDS011;397;50.564;7.272;2023-07-29T12:15:30;3.57;;;1.90;;
830;SDS011;397;50.564;7.272;2023-07-29T12:17:59;3.40;;;1.87;;
830;SDS011;397;50.564;7.272;2023-07-29T12:20:28;3.00;;;1.73;;
830;SDS011;397;50.564;7.272;2023-07-29T12:22:57;4.10;;;1.53;;
830;SDS011;397;50.564;7.272;2023-07-29T12:25:28;2.80;;;1.60;;
830;SDS011;397;50.564;7.272;2023-07-29T12:27:56;2.23;;;1.10;;
830;SDS011;397;50.564;7.272;2023-07-29T12:30:25;4.87;;;2.03;;
830;SDS011;397;50.564;7.272;2023-07-29T12:32:53;3.27;;;1.70;;
830;SDS011;397;50.564;7.272;2023-07-29T12:35:21;3.53;;;1.50;;
830;SDS011;397;50.564;7.272;2023-07-29T12:37:58;2.43;;;1.37;;
830;SDS011;397;50.564;7.272;2023-07-29T12:40:26;2.50;;;1.50;;
830;SDS011;397;50.564;7.272;2023-07-29T12:42:54;2.70;;;1.33;;
830;SDS011;397;50.564;7.272;2023-07-29T12:45:22;2.70;;;1.60;;
830;SDS011;397;50.564;7.272;2023-07-29T12:47:52;2.33;;;1.27;;
830;SDS011;397;50.564;7.272;2023-07-29T12:50:19;2.60;;;1.60;;
830;SDS011;397;50.564;7.272;2023-07-29T12:52:47;3.03;;;2.00;;
830;SDS011;397;50.564;7.272;2023-07-29T12:55:15;2.70;;;1.47;;
830;SDS011;397;50.564;7.272;2023-07-29T12:57:42;4.20;;;1.87;;
830;SDS011;397;50.564;7.272;2023-07-29T13:00:10;3.07;;;2.10;;
830;SDS011;397;50.564;7.272;2023-07-29T13:02:38;3.70;;;1.90;;
830;SDS011;397;50.564;7.272;2023-07-29T13:05:08;2.50;;;1.67;;
830;SDS011;397;50.564;7.272;2023-07-29T13:07:40;3.37;;;1.90;;
830;SDS011;397;50.564;7.272;2023-07-29T13:10:08;2.63;;;1.70;;
830;SDS011;397;50.564;7.272;2023-07-29T13:12:37;3.77;;;1.67;;
830;SDS011;397;50.564;7.272;2023-07-29T13:15:05;2.60;;;1.37;;
830;SDS011;397;50.564;7.272;2023-07-29T13:17:33;5.37;;;2.00;;
830;SDS011;397;50.564;7.272;2023-07-29T13:20:01;3.20;;;2.00;;
830;SDS011;397;50.564;7.272;2023-07-29T13:22:29;2.87;;;1.87;;
830;SDS011;397;50.564;7.272;2023-07-29T13:25:00;2.80;;;1.70;;
830;SDS011;397;50.564;7.272;2023-07-29T13:27:27;3.30;;;1.90;;
830;SDS011;397;50.564;7.272;2023-07-29T13:29:55;3.80;;;1.70;;
830;SDS011;397;50.564;7.272;2023-07-29T13:32:41;3.97;;;2.10;;
830;SDS011;397;50.564;7.272;2023-07-29T13:35:14;4.10;;;2.57;;
830;SDS011;397;50.564;7.272;2023-07-29T13:37:41;3.33;;;2.20;;
830;SDS011;397;50.564;7.272;2023-07-29T13:40:09;3.20;;;2.30;;
830;SDS011;397;50.564;7.272;2023-07-29T13:42:37;2.90;;;1.90;;
830;SDS011;397;50.564;7.272;2023-07-29T13:45:04;3.97;;;2.20;;
830;SDS011;397;50.564;7.272;2023-07-29T13:47:32;5.50;;;2.00;;
830;SDS011;397;50.564;7.272;2023-07-29T13:50:00;4.17;;;2.27;;
830;SDS011;397;50.564;7.272;2023-07-29T13:52:28;3.13;;;2.17;;
830;SDS011;397;50.564;7.272;2023-07-29T13:54:55;4.20;;;2.53;;
830;SDS011;397;50.564;7.272;2023-07-29T13:57:23;3.20;;;2.00;;
830;SDS011;397;50.564;7.272;2023-07-29T13:59:50;2.90;;;1.90;;
830;SDS011;397;50.564;7.272;2023-07-29T14:02:18;2.70;;;1.57;;
830;SDS011;397;50.564;7.272;2023-07-29T14:04:45;5.00;;;2.87;;
830;SDS011;397;50.564;7.272;2023-07-29T14:07:13;2.80;;;1.83;;
830;SDS011;397;50.564;7.272;2023-07-29T14:09:40;3.23;;;2.07;;
830;SDS011;397;50.564;7.272;2023-07-29T14:12:08;3.30;;;1.80;;
830;SDS011;397;50.564;7.272;2023-07-29T14:14:40;3.10;;;1.90;;
830;SDS011;397;50.564;7.272;2023-07-29T14:17:08;3.53;;;2.20;;
830;SDS011;397;50.564;7.272;2023-07-29T14:19:39;4.50;;;2.27;;
830;SDS011;397;50.564;7.272;2023-07-29T14:22:06;3.90;;;2.03;;
830;SDS011;397;50.564;7.272;2023-07-29T14:24:34;3.43;;;1.77;;
830;SDS011;397;50.564;7.272;2023-07-29T14:27:01;3.13;;;2.13;;
830;SDS011;397;50.564;7.272;2023-07-29T14:29:29;3.03;;;1.70;;
830;SDS011;397;50.564;7.272;2023-07-29T14:31:57;3.90;;;2.10;;
830;SDS011;397;50.564;7.272;2023-07-29T14:34:25;3.40;;;2.63;;
830;SDS011;397;50.564;7.272;2023-07-29T14:36:52;2.97;;;2.07;;
830;SDS011;397;50.564;7.272;2023-07-29T14:39:20;5.60;;;2.33;;
830;SDS011;397;50.564;7.272;2023-07-29T14:41:47;2.90;;;1.90;;
830;SDS011;397;50.564;7.272;2023-07-29T14:44:15;3.40;;;2.27;;
830;SDS011;397;50.564;7.272;2023-07-29T14:46:42;3.10;;;2.20;;
830;SDS011;397;50.564;7.272;2023-07-29T14:49:10;3.50;;;2.17;;
830;SDS011;397;50.564;7.272;2023-07-29T14:51:38;3.70;;;2.00;;
830;SDS011;397;50.564;7.272;2023-07-29T14:54:05;3.43;;;1.87;;
830;SDS011;397;50.564;7.272;2023-07-29T14:56:33;5.30;;;1.93;;
830;SDS011;397;50.564;7.272;2023-07-29T14:59:00;4.00;;;2.10;;
830;SDS011;397;50.564;7.272;2023-07-29T15:01:28;3.53;;;2.20;;
830;SDS011;397;50.564;7.272;2023-07-29T15:03:55;3.50;;;1.87;;
830;SDS011;397;50.564;7.272;2023-07-29T15:06:23;3.83;;;2.17;;
830;SDS011;397;50.564;7.272;2023-07-29T15:08:50;3.57;;;2.00;;
830;SDS011;397;50.564;7.272;2023-07-29T15:11:18;3.20;;;2.00;;
830;SDS011;397;50.564;7.272;2023-07-29T15:13:45;3.63;;;2.67;;
830;SDS011;397;50.564;7.272;2023-07-29T15:16:13;3.00;;;1.80;;
830;SDS011;397;50.564;7.272;2023-07-29T15:18:40;3.20;;;2.30;;
830;SDS011;397;50.564;7.272;2023-07-29T15:21:08;3.07;;;2.03;;
830;SDS011;397;50.564;7.272;2023-07-29T15:23:35;3.73;;;2.43;;
830;SDS011;397;50.564;7.272;2023-07-29T15:26:03;4.20;;;2.27;;
830;SDS011;397;50.564;7.272;2023-07-29T15:28:30;2.87;;;2.07;;
830;SDS011;397;50.564;7.272;2023-07-29T15:30:58;4.57;;;2.47;;
830;SDS011;397;50.564;7.272;2023-07-29T15:33:25;3.10;;;1.80;;
830;SDS011;397;50.564;7.272;2023-07-29T15:35:53;3.40;;;2.23;;
830;SDS011;397;50.564;7.272;2023-07-29T15:38:20;3.73;;;2.47;;
830;SDS011;397;50.564;7.272;2023-07-29T15:40:48;3.93;;;2.43;;
830;SDS011;397;50.564;7.272;2023-07-29T15:43:17;3.17;;;2.07;;
830;SDS011;397;50.564;7.272;2023-07-29T15:45:44;3.30;;;2.30;;
830;SDS011;397;50.564;7.272;2023-07-29T15:48:12;3.50;;;2.33;;
830;SDS011;397;50.564;7.272;2023-07-29T15:50:40;4.80;;;2.73;;
830;SDS011;397;50.564;7.272;2023-07-29T15:53:07;5.60;;;1.73;;
830;SDS011;397;50.564;7.272;2023-07-29T15:55:35;4.80;;;2.67;;
830;SDS011;397;50.564;7.272;2023-07-29T15:58:02;3.97;;;2.20;;
830;SDS011;397;50.564;7.272;2023-07-29T16:00:30;3.23;;;2.20;;
830;SDS011;397;50.564;7.272;2023-07-29T16:02:58;4.07;;;2.53;;
830;SDS011;397;50.564;7.272;2023-07-29T16:05:25;3.37;;;2.00;;
830;SDS011;397;50.564;7.272;2023-07-29T16:07:53;3.23;;;2.20;;
830;SDS011;397;50.564;7.272;2023-07-29T16:10:22;4.73;;;2.53;;
830;SDS011;397;50.564;7.272;2023-07-29T16:12:50;2.90;;;2.23;;